Time;durP1;ratioP1;P1;durP2;ratioP2;P2;SDS_P1;SDS_P2;PMS_P1;PMS_P2;Temp;Humidity;BMP_temperature;BMP_pressure;BME280_temperature;BME280_humidity;BME280_pressure;Samples;Min_cycle;Max_cycle;Signal;HPM_P1;HPM_P2
2021/03/10 00:01:56;;;;;;;;;;;;;;;17.69;63.93;101166.59;5007069;28;1485;-59
2021/03/10 00:04:21;;;;;;;;;;;;;;;17.66;63.58;101156.13;5001582;28;1547;-58
2021/03/10 00:06:47;;;;;;;;;;;;;;;17.67;63.84;101160.53;5001879;28;1894;-58
2021/03/10 00:09:12;;;;;;;;;;;;;;;17.67;63.75;101153.34;5008517;28;1426;-58
2021/03/10 00:11:37;;;;;;;;;;;;;;;17.66;63.28;101137.41;5009841;28;1517;-59
2021/03/10 00:14:03;;;;;;;;;;;;;;;17.66;63.63;101154.28;5004386;28;1434;-60
2021/03/10 00:16:28;;;;;;;;;;;;;;;17.63;63.33;101138.50;4999278;28;1269;-59
2021/03/10 00:18:53;;;;;;;;;;;;;;;17.64;63.67;101136.66;5007792;28;1526;-59
2021/03/10 00:21:19;;;;;;;;;;;;;;;17.64;62.97;101144.69;5000480;28;1477;-59
2021/03/10 00:23:44;;;;;;;;;;;;;;;17.65;63.36;101146.41;5010489;28;1477;-58
2021/03/10 00:26:10;;;;;;;;;;;;;;;17.64;63.94;101147.38;5006306;28;1366;-58
2021/03/10 00:28:35;;;;;;;;;;;;;;;17.61;64.02;101145.78;5010162;28;1976;-58
2021/03/10 00:31:00;;;;;;;;;;;;;;;17.61;63.14;101153.81;5008478;28;1725;-59
2021/03/10 00:33:26;;;;;;;;;;;;;;;17.63;63.63;101135.81;5009141;28;1484;-58
2021/03/10 00:35:51;;;;;;;;;;;;;;;17.58;63.17;101137.13;5009710;28;1270;-60
2021/03/10 00:38:16;;;;;;;;;;;;;;;17.57;63.22;101132.78;5011206;28;1775;-59
2021/03/10 00:40:42;;;;;;;;;;;;;;;17.60;64.05;101125.34;5011228;28;1465;-58
2021/03/10 00:43:07;;;;;;;;;;;;;;;17.57;64.19;101124.75;5005536;28;1595;-60
2021/03/10 00:45:32;;;;;;;;;;;;;;;17.55;63.35;101118.66;5008664;28;1437;-59
2021/03/10 00:47:58;;;;;;;;;;;;;;;17.54;63.25;101111.59;5008565;28;1882;-58
2021/03/10 00:50:24;;;;;;;;;;;;;;;17.54;63.76;101112.44;5002547;28;1491;-58
2021/03/10 00:52:49;;;;;;;;;;;;;;;17.56;64.36;101098.97;5011772;28;1472;-58
2021/03/10 00:55:15;;;;;;;;;;;;;;;17.56;64.04;101093.63;5005671;28;1531;-59
2021/03/10 00:57:40;;;;;;;;;;;;;;;17.55;63.46;101099.94;5009049;28;1477;-58
2021/03/10 01:00:06;;;;;;;;;;;;;;;17.55;64.05;101084.75;5007924;28;1373;-58
2021/03/10 01:02:32;;;;;;;;;;;;;;;17.50;64.23;101082.41;5011396;28;1518;-59
2021/03/10 01:04:57;;;;;;;;;;;;;;;17.52;63.93;101092.16;5005983;28;1741;-58
2021/03/10 01:07:22;;;;;;;;;;;;;;;17.53;64.22;101080.47;5001555;28;1903;-58
2021/03/10 01:09:48;;;;;;;;;;;;;;;17.52;64.41;101074.28;5008951;28;1695;-59
2021/03/10 01:12:13;;;;;;;;;;;;;;;17.52;63.85;101065.41;5012143;28;1497;-58
2021/03/10 01:14:38;;;;;;;;;;;;;;;17.51;64.24;101059.22;5009569;28;1468;-59
2021/03/10 01:17:04;;;;;;;;;;;;;;;17.49;64.24;101058.50;5009782;28;1274;-59
2021/03/10 01:19:29;;;;;;;;;;;;;;;17.45;63.22;101044.50;5011748;28;1349;-58
2021/03/10 01:21:55;;;;;;;;;;;;;;;17.44;63.08;101056.16;5006658;28;1456;-58
2021/03/10 01:24:20;;;;;;;;;;;;;;;17.45;63.28;101043.66;5003368;28;1422;-58
2021/03/10 01:26:45;;;;;;;;;;;;;;;17.46;63.84;101046.19;5009703;28;1918;-58
2021/03/10 01:29:11;;;;;;;;;;;;;;;17.45;64.02;101046.34;5004048;28;1418;-59
2021/03/10 01:31:36;;;;;;;;;;;;;;;17.49;63.20;101053.16;5004516;28;1509;-59
2021/03/10 01:34:01;;;;;;;;;;;;;;;17.50;63.80;101050.34;5005867;28;1063;-58
2021/03/10 01:36:27;;;;;;;;;;;;;;;17.49;63.95;101043.28;5002312;28;1444;-58
2021/03/10 01:38:52;;;;;;;;;;;;;;;17.49;63.87;101050.47;4999730;28;1311;-59
2021/03/10 01:41:19;;;;;;;;;;;;;;;17.50;63.64;101049.50;5008530;28;1461;-58
2021/03/10 01:43:44;;;;;;;;;;;;;;;17.48;62.56;101036.22;5005459;28;1246;-58
2021/03/10 01:46:09;;;;;;;;;;;;;;;17.48;63.60;101038.06;5010112;28;1550;-59
2021/03/10 01:48:35;;;;;;;;;;;;;;;17.47;63.64;101017.66;5009920;28;1953;-58
2021/03/10 01:51:01;;;;;;;;;;;;;;;17.49;63.76;101029.94;5007243;28;1573;-58
2021/03/10 01:53:27;;;;;;;;;;;;;;;17.45;62.61;101023.13;4987270;28;1581;-60
2021/03/10 01:55:53;;;;;;;;;;;;;;;17.47;63.30;101023.84;5008608;28;1543;-60
2021/03/10 01:58:18;;;;;;;;;;;;;;;17.45;63.68;101000.88;5009452;28;1473;-59
2021/03/10 02:00:44;;;;;;;;;;;;;;;17.42;63.69;101009.97;5008405;28;1551;-58
2021/03/10 02:03:09;;;;;;;;;;;;;;;17.40;63.08;101001.22;5002978;28;1485;-59
2021/03/10 02:05:35;;;;;;;;;;;;;;;17.39;63.37;100999.53;5003703;28;1227;-59
2021/03/10 02:08:00;;;;;;;;;;;;;;;17.38;63.87;100992.47;5008707;28;1948;-58
2021/03/10 02:10:44;;;;;;;;;;;;;;;17.34;63.67;100985.66;5008228;28;1441;-58
2021/03/10 02:13:15;;;;;;;;;;;;;;;17.36;63.29;100978.38;4991330;28;1559;-58
2021/03/10 02:15:47;;;;;;;;;;;;;;;17.37;62.89;100990.78;4991608;28;1564;-59
2021/03/10 02:18:16;;;;;;;;;;;;;;;17.33;63.78;100981.31;4993883;28;1517;-59
2021/03/10 02:20:43;;;;;;;;;;;;;;;17.34;64.25;100974.13;4994361;28;1464;-58
2021/03/10 02:23:27;;;;;;;;;;;;;;;17.36;63.49;100988.22;4992603;28;1506;-58
2021/03/10 02:25:55;;;;;;;;;;;;;;;17.35;63.24;100991.84;4989826;28;1733;-58
2021/03/10 02:28:21;;;;;;;;;;;;;;;17.35;63.76;100986.50;4993136;28;1973;-58
2021/03/10 02:30:50;;;;;;;;;;;;;;;17.34;63.72;100985.66;4991734;28;1560;-59
2021/03/10 02:33:20;;;;;;;;;;;;;;;17.34;64.00;100984.81;4989192;28;1426;-58
2021/03/10 02:36:06;;;;;;;;;;;;;;;17.33;63.41;100994.66;4994584;28;1227;-60
2021/03/10 02:38:31;;;;;;;;;;;;;;;17.32;63.67;100987.59;4988356;28;1195;-59
2021/03/10 02:40:57;;;;;;;;;;;;;;;17.33;63.81;101000.00;4993014;28;1462;-58
2021/03/10 02:43:24;;;;;;;;;;;;;;;17.35;63.16;100989.19;4992679;28;1546;-59
2021/03/10 02:45:50;;;;;;;;;;;;;;;17.31;64.04;100985.91;4985887;28;1676;-59
2021/03/10 02:48:16;;;;;;;;;;;;;;;17.30;64.30;100993.06;4991341;28;1894;-58
2021/03/10 02:50:41;;;;;;;;;;;;;;;17.27;63.44;100990.66;4993818;28;1193;-58
2021/03/10 02:53:08;;;;;;;;;;;;;;;17.29;63.40;100987.88;4991417;28;1703;-59
2021/03/10 02:55:34;;;;;;;;;;;;;;;17.32;63.49;100990.28;4992283;28;1426;-59
2021/03/10 02:58:00;;;;;;;;;;;;;;;17.33;63.28;100986.66;4993271;28;1419;-58
2021/03/10 03:02:53;;;;;;;;;;;;;;;17.34;63.77;100963.44;4997980;28;1558;-40
2021/03/10 03:05:18;;;;;;;;;;;;;;;17.33;62.93;100969.75;5003422;28;1718;-40
2021/03/10 03:07:47;;;;;;;;;;;;;;;17.32;62.59;100970.72;5003866;28;1894;-40
2021/03/10 03:12:40;;;;;;;;;;;;;;;17.32;63.85;100974.25;5013010;28;1743;-59
2021/03/10 03:15:06;;;;;;;;;;;;;;;17.30;63.86;100965.50;5013345;28;1445;-58
2021/03/10 03:17:32;;;;;;;;;;;;;;;17.29;62.74;100966.47;5011531;28;1473;-59
2021/03/10 03:19:57;;;;;;;;;;;;;;;17.26;63.50;100956.84;5018901;28;1527;-58
2021/03/10 03:22:24;;;;;;;;;;;;;;;17.26;62.95;100950.66;5021020;28;1512;-59
2021/03/10 03:24:50;;;;;;;;;;;;;;;17.24;62.96;100953.44;5010272;28;1476;-59
2021/03/10 03:27:25;;;;;;;;;;;;;;;17.24;62.74;100961.47;5012319;28;1983;-59
2021/03/10 03:29:52;;;;;;;;;;;;;;;17.24;63.66;100957.94;5012009;28;1302;-60
2021/03/10 03:32:18;;;;;;;;;;;;;;;17.21;63.97;100958.19;5019143;28;1497;-59
2021/03/10 03:34:43;;;;;;;;;;;;;;;17.24;63.67;100961.47;5012948;28;1493;-60
2021/03/10 03:37:08;;;;;;;;;;;;;;;17.25;63.83;100970.38;5006755;28;1452;-58
2021/03/10 03:39:34;;;;;;;;;;;;;;;17.21;64.00;100950.16;5010241;28;1448;-59
2021/03/10 03:41:59;;;;;;;;;;;;;;;17.24;63.71;100958.78;5013661;28;1516;-58
2021/03/10 03:44:25;;;;;;;;;;;;;;;17.25;63.10;100957.84;5012903;28;1454;-59
2021/03/10 03:46:50;;;;;;;;;;;;;;;17.24;63.95;100952.59;5011402;28;1925;-58
2021/03/10 03:49:15;;;;;;;;;;;;;;;17.20;62.87;100962.69;5028394;28;1039;-59
2021/03/10 03:51:41;;;;;;;;;;;;;;;17.19;63.79;100947.63;5027859;28;1769;-59
2021/03/10 03:54:06;;;;;;;;;;;;;;;17.20;63.60;100961.84;5007117;28;1413;-58
2021/03/10 03:56:32;;;;;;;;;;;;;;;17.25;63.59;100959.66;5017229;28;1442;-59
2021/03/10 03:58:57;;;;;;;;;;;;;;;17.26;63.54;100951.50;5020929;28;1501;-59
2021/03/10 04:01:23;;;;;;;;;;;;;;;17.26;64.09;100945.31;5008983;28;1482;-59
2021/03/10 04:03:49;;;;;;;;;;;;;;;17.24;64.55;100945.44;4988715;28;1471;-59
2021/03/10 04:06:15;;;;;;;;;;;;;;;17.20;64.49;100937.78;4985712;28;1406;-59
2021/03/10 04:08:41;;;;;;;;;;;;;;;17.20;63.92;100940.47;4983280;28;1941;-59
2021/03/10 04:11:07;;;;;;;;;;;;;;;17.22;64.57;100933.16;4985362;28;1562;-59
2021/03/10 04:13:32;;;;;;;;;;;;;;;17.27;65.23;100936.34;4993203;28;1518;-59
2021/03/10 04:15:58;;;;;;;;;;;;;;;17.30;64.03;100944.09;4993881;28;1443;-60
2021/03/10 04:18:23;;;;;;;;;;;;;;;17.33;64.28;100930.53;4991840;28;1735;-59
2021/03/10 04:20:49;;;;;;;;;;;;;;;17.31;65.22;100919.09;4287808;28;10000792;-59
2021/03/10 04:23:14;;;;;;;;;;;;;;;17.34;65.48;100921.50;4984474;28;1483;-58
2021/03/10 04:25:40;;;;;;;;;;;;;;;17.37;64.76;100920.41;4982172;28;1470;-56
2021/03/10 04:28:06;;;;;;;;;;;;;;;17.35;65.24;100917.88;4985425;28;2043;-59
2021/03/10 04:30:32;;;;;;;;;;;;;;;17.33;64.23;100919.81;4986320;28;1494;-58
2021/03/10 04:32:58;;;;;;;;;;;;;;;17.33;64.83;100908.25;4979857;28;1454;-58
2021/03/10 04:35:23;;;;;;;;;;;;;;;17.31;64.18;100908.41;4979186;28;1465;-58
2021/03/10 04:37:49;;;;;;;;;;;;;;;17.29;64.55;100913.88;4980165;28;1483;-58
2021/03/10 04:40:15;;;;;;;;;;;;;;;17.25;64.98;100909.72;4987415;28;1369;-58
2021/03/10 04:42:40;;;;;;;;;;;;;;;17.25;64.68;100920.44;4980732;28;1474;-58
2021/03/10 04:45:09;;;;;;;;;;;;;;;17.24;64.98;100916.03;4985262;28;1498;-58
2021/03/10 04:47:34;;;;;;;;;;;;;;;17.22;64.21;100901.09;4982053;28;1946;-58
2021/03/10 04:50:00;;;;;;;;;;;;;;;17.21;64.92;100915.41;4979142;28;1525;-58
2021/03/10 04:52:26;;;;;;;;;;;;;;;17.18;65.04;100905.00;4985369;28;1559;-58
2021/03/10 04:54:51;;;;;;;;;;;;;;;17.14;65.15;100908.88;4983464;28;1615;-58
2021/03/10 04:57:17;;;;;;;;;;;;;;;17.15;64.48;100914.09;4979678;28;1469;-58
2021/03/10 04:59:42;;;;;;;;;;;;;;;17.14;64.61;100904.38;4992265;28;1766;-58
2021/03/10 05:02:08;;;;;;;;;;;;;;;17.09;64.95;100891.38;4981004;28;1594;-58
2021/03/10 05:04:33;;;;;;;;;;;;;;;17.12;64.43;100894.78;4983402;28;1618;-58
2021/03/10 05:06:58;;;;;;;;;;;;;;;17.12;65.12;100897.44;4980168;28;1963;-58
2021/03/10 05:09:24;;;;;;;;;;;;;;;17.06;64.92;100896.09;4983693;28;1399;-58
2021/03/10 05:11:49;;;;;;;;;;;;;;;17.06;64.57;100891.59;4984178;28;1478;-58
2021/03/10 05:14:14;;;;;;;;;;;;;;;17.09;65.21;100895.88;4979797;28;1490;-58
2021/03/10 05:16:40;;;;;;;;;;;;;;;17.06;64.21;100888.09;4985130;28;1806;-58
2021/03/10 05:19:05;;;;;;;;;;;;;;;17.02;64.30;100892.81;4988116;28;2219;-58
2021/03/10 05:21:30;;;;;;;;;;;;;;;17.01;63.99;100901.81;4985979;28;1691;-58
2021/03/10 05:23:56;;;;;;;;;;;;;;;17.01;63.92;100893.81;4984847;28;1535;-58
2021/03/10 05:26:21;;;;;;;;;;;;;;;17.03;64.05;100889.19;4986243;28;1371;-58
2021/03/10 05:28:47;;;;;;;;;;;;;;;17.05;64.10;100892.59;4996547;28;1910;-58
2021/03/10 05:31:12;;;;;;;;;;;;;;;17.05;63.52;100894.38;4983415;28;1733;-58
2021/03/10 05:33:38;;;;;;;;;;;;;;;17.04;64.12;100884.69;4987873;28;1719;-58
2021/03/10 05:36:03;;;;;;;;;;;;;;;17.06;63.89;100885.41;4985811;28;1664;-58
2021/03/10 05:38:30;;;;;;;;;;;;;;;17.03;64.79;100885.66;4989521;28;1497;-59
2021/03/10 05:40:56;;;;;;;;;;;;;;;17.03;63.64;100881.19;4984264;28;1448;-58
2021/03/10 05:43:22;;;;;;;;;;;;;;;17.06;64.97;100886.25;4985891;28;1356;-58
2021/03/10 05:45:47;;;;;;;;;;;;;;;17.01;64.35;100891.13;4987481;28;1510;-59
2021/03/10 05:48:12;;;;;;;;;;;;;;;16.99;64.90;100900.22;4981094;28;1911;-59
2021/03/10 05:50:38;;;;;;;;;;;;;;;16.96;65.04;100897.78;4988235;28;1258;-59
2021/03/10 05:53:07;;;;;;;;;;;;;;;16.97;64.56;100900.34;4994111;28;1374;-58
2021/03/10 05:55:33;;;;;;;;;;;;;;;17.01;64.35;100892.94;4990603;28;1533;-58
2021/03/10 05:57:58;;;;;;;;;;;;;;;17.00;63.52;100894.75;4994538;28;1365;-59
2021/03/10 06:00:24;;;;;;;;;;;;;;;17.02;63.79;100894.66;4993782;28;1390;-59
2021/03/10 06:02:50;;;;;;;;;;;;;;;17.00;63.47;100881.41;4992043;28;1390;-58
2021/03/10 06:05:20;;;;;;;;;;;;;;;17.01;64.16;100888.47;4971825;28;1381;-59
2021/03/10 06:07:45;;;;;;;;;;;;;;;17.01;64.08;100909.84;4990421;28;1902;-58
2021/03/10 06:10:11;;;;;;;;;;;;;;;17.02;63.60;100902.66;5001353;28;1421;-59
2021/03/10 06:12:37;;;;;;;;;;;;;;;17.01;63.59;100904.50;5008182;28;1556;-59
2021/03/10 06:15:02;;;;;;;;;;;;;;;16.98;63.50;100915.41;5009657;28;1468;-58
2021/03/10 06:17:27;;;;;;;;;;;;;;;16.98;64.42;100909.22;4999840;28;1239;-59
2021/03/10 06:19:53;;;;;;;;;;;;;;;16.96;63.67;100895.13;4990695;28;1415;-58
2021/03/10 06:22:19;;;;;;;;;;;;;;;16.96;64.71;100901.31;4998386;28;1608;-58
2021/03/10 06:24:44;;;;;;;;;;;;;;;16.99;64.00;100910.91;4972126;28;1559;-59
2021/03/10 06:27:10;;;;;;;;;;;;;;;17.05;63.32;100910.41;4994530;28;1914;-59
2021/03/10 06:29:36;;;;;;;;;;;;;;;17.19;64.64;100912.88;4990690;28;1575;-58
2021/03/10 06:32:05;;;;;;;;;;;;;;;17.26;64.29;100921.25;4997144;28;1557;-59
2021/03/10 06:34:41;;;;;;;;;;;;;;;17.38;63.47;100901.59;4989292;28;1298;-59
2021/03/10 06:37:06;;;;;;;;;;;;;;;17.64;62.24;100909.34;4990670;28;1597;-58
2021/03/10 06:39:32;;;;;;;;;;;;;;;17.79;61.97;100910.81;4988758;28;1586;-59
2021/03/10 06:41:58;;;;;;;;;;;;;;;18.01;61.95;100914.44;4992902;28;1582;-59
2021/03/10 06:44:24;;;;;;;;;;;;;;;18.23;61.14;100919.72;4992092;28;1563;-65
2021/03/10 06:46:50;;;;;;;;;;;;;;;18.31;61.00;100907.53;4981118;28;1957;-57
2021/03/10 06:49:16;;;;;;;;;;;;;;;18.46;61.61;100915.16;4992571;28;1533;-57
2021/03/10 06:52:02;;;;;;;;;;;;;;;18.49;61.16;100911.34;4993299;28;1370;-57
2021/03/10 06:54:28;;;;;;;;;;;;;;;18.52;61.07;100919.09;4990602;28;1761;-57
2021/03/10 06:57:00;;;;;;;;;;;;;;;18.67;61.81;100923.19;4991778;28;1457;-59
2021/03/10 06:59:26;;;;;;;;;;;;;;;18.69;61.22;100912.34;4992250;28;1432;-58
2021/03/10 07:01:51;;;;;;;;;;;;;;;18.77;61.61;100922.41;4994699;28;1448;-59
2021/03/10 07:04:16;;;;;;;;;;;;;;;18.74;61.64;100928.03;4985688;28;1419;-58
2021/03/10 07:06:42;;;;;;;;;;;;;;;18.83;61.29;100924.59;4985897;28;1393;-58
2021/03/10 07:09:10;;;;;;;;;;;;;;;18.85;60.65;100914.59;4990885;28;1953;-58
2021/03/10 07:11:36;;;;;;;;;;;;;;;18.93;60.74;100920.16;4999986;28;1481;-57
2021/03/10 07:14:03;;;;;;;;;;;;;;;18.95;60.71;100920.03;4992725;28;1624;-58
2021/03/10 07:16:32;;;;;;;;;;;;;;;19.18;60.36;100928.75;4987177;28;1495;-57
2021/03/10 07:18:57;;;;;;;;;;;;;;;19.26;59.98;100913.72;4988373;28;1459;-56
2021/03/10 07:21:26;;;;;;;;;;;;;;;19.19;60.12;100903.66;4995514;28;1389;-59
2021/03/10 07:23:53;;;;;;;;;;;;;;;19.19;59.99;100912.53;4984139;28;1619;-60
2021/03/10 07:26:19;;;;;;;;;;;;;;;19.24;59.99;100920.22;4998139;28;1453;-58
2021/03/10 07:28:50;;;;;;;;;;;;;;;19.11;60.41;100919.56;4993077;28;1918;-58
2021/03/10 07:31:22;;;;;;;;;;;;;;;19.11;60.26;100914.19;4990715;28;1521;-57
2021/03/10 07:33:48;;;;;;;;;;;;;;;19.10;60.44;100915.16;4987338;28;1545;-57
2021/03/10 07:36:14;;;;;;;;;;;;;;;19.03;60.50;100904.13;4987291;28;1506;-57
2021/03/10 07:38:40;;;;;;;;;;;;;;;18.98;61.63;100909.91;4994590;28;1565;-58
2021/03/10 07:41:06;;;;;;;;;;;;;;;18.95;61.19;100914.66;4996094;28;1315;-56
2021/03/10 07:43:42;;;;;;;;;;;;;;;18.96;61.25;100900.28;4994177;28;1491;-60
2021/03/10 07:46:26;;;;;;;;;;;;;;;18.99;61.86;100898.19;4984917;28;1716;-58
2021/03/10 07:48:52;;;;;;;;;;;;;;;18.99;61.79;100911.59;4991027;28;1890;-59
2021/03/10 07:51:28;;;;;;;;;;;;;;;18.91;61.89;100903.38;4992765;28;1539;-58
2021/03/10 07:53:53;;;;;;;;;;;;;;;18.79;62.19;100907.06;5002184;28;1342;-58
2021/03/10 07:56:26;;;;;;;;;;;;;;;18.69;62.29;100915.88;5001880;28;765;-58
2021/03/10 07:58:51;;;;;;;;;;;;;;;18.69;62.87;100913.19;4984863;28;1333;-57
2021/03/10 08:01:17;;;;;;;;;;;;;;;18.62;62.56;100909.34;4999718;28;1551;-57
2021/03/10 08:03:42;;;;;;;;;;;;;;;18.60;62.74;100907.75;5002200;28;1450;-57
2021/03/10 08:06:10;;;;;;;;;;;;;;;18.54;63.01;100900.25;5011126;28;1599;-57
2021/03/10 08:08:36;;;;;;;;;;;;;;;18.50;63.15;100894.28;5000467;28;1898;-57
2021/03/10 08:11:06;;;;;;;;;;;;;;;18.48;63.20;100902.47;5003198;28;1512;-57
2021/03/10 08:13:31;;;;;;;;;;;;;;;18.42;62.67;100903.00;4988151;28;1511;-57
2021/03/10 08:16:00;;;;;;;;;;;;;;;18.40;63.31;100912.09;4995926;28;1428;-57
2021/03/10 08:18:27;;;;;;;;;;;;;;;18.35;63.14;100907.16;4997682;28;1467;-57
2021/03/10 08:20:53;;;;;;;;;;;;;;;18.36;63.21;100902.63;4991201;28;1394;-57
2021/03/10 08:23:18;;;;;;;;;;;;;;;18.34;62.88;100905.44;4998983;28;1548;-57
2021/03/10 08:25:49;;;;;;;;;;;;;;;18.32;63.24;100898.50;4992560;28;1687;-57
2021/03/10 08:28:15;;;;;;;;;;;;;;;18.35;63.66;100893.75;4996547;28;1914;-57
2021/03/10 08:30:42;;;;;;;;;;;;;;;18.36;63.10;100898.13;5002121;28;1407;-57
2021/03/10 08:33:08;;;;;;;;;;;;;;;18.38;62.84;100895.31;5002626;28;1411;-57
2021/03/10 08:35:33;;;;;;;;;;;;;;;18.39;63.33;100889.84;4998464;28;871;-57
2021/03/10 08:38:00;;;;;;;;;;;;;;;18.38;63.28;100884.63;4990884;28;1821;-58
2021/03/10 08:40:27;;;;;;;;;;;;;;;18.38;62.58;100884.63;4996118;28;1389;-58
2021/03/10 08:42:56;;;;;;;;;;;;;;;18.36;63.20;100883.91;4991198;28;1345;-61
2021/03/10 08:45:40;;;;;;;;;;;;;;;18.42;63.26;100888.72;4993927;28;1495;-58
2021/03/10 08:48:07;;;;;;;;;;;;;;;18.48;63.17;100880.19;4995822;28;1945;-57
2021/03/10 08:50:37;;;;;;;;;;;;;;;18.46;63.08;100895.53;4979528;28;1143;-58
2021/03/10 08:53:03;;;;;;;;;;;;;;;18.44;62.70;100894.81;4994256;28;1453;-57
2021/03/10 08:55:29;;;;;;;;;;;;;;;18.53;62.84;100891.38;4995969;28;1319;-59
2021/03/10 08:57:54;;;;;;;;;;;;;;;18.52;62.71;100895.00;4992877;28;1578;-58
2021/03/10 09:00:23;;;;;;;;;;;;;;;18.55;62.39;100892.09;4996107;28;1300;-57
2021/03/10 09:02:50;;;;;;;;;;;;;;;18.65;62.57;100887.66;4994300;28;1456;-58
2021/03/10 09:05:16;;;;;;;;;;;;;;;18.70;62.70;100887.25;4993397;28;1319;-57
2021/03/10 09:07:41;;;;;;;;;;;;;;;18.76;62.60;100888.56;4993695;28;1883;-58
2021/03/10 09:10:11;;;;;;;;;;;;;;;18.79;62.71;100877.59;5002141;28;1426;-58
2021/03/10 09:12:45;;;;;;;;;;;;;;;18.82;62.25;100855.91;4978160;28;1471;-69
2021/03/10 09:15:11;;;;;;;;;;;;;;;18.84;62.94;100886.09;4988826;28;1354;-58
2021/03/10 09:17:36;;;;;;;;;;;;;;;18.77;63.28;100871.50;4989665;28;1362;-57
2021/03/10 09:20:09;;;;;;;;;;;;;;;18.76;63.30;100875.16;4990052;28;1224;-64
2021/03/10 09:22:43;;;;;;;;;;;;;;;18.78;63.47;100886.59;4990083;28;1275;-64
2021/03/10 09:25:10;;;;;;;;;;;;;;;18.66;64.03;100892.03;5000879;28;1673;-61
2021/03/10 09:27:35;;;;;;;;;;;;;;;18.64;63.59;100896.69;4982754;28;1914;-64
2021/03/10 09:30:06;;;;;;;;;;;;;;;18.67;64.18;100884.84;5004602;28;1397;-60
2021/03/10 09:32:39;;;;;;;;;;;;;;;18.46;64.07;100893.72;4973748;28;1452;-60
2021/03/10 09:35:10;;;;;;;;;;;;;;;18.57;63.30;100900.00;4968300;28;11571;-62
2021/03/10 09:37:42;;;;;;;;;;;;;;;18.64;63.42;100891.31;4989530;28;1354;-60
2021/03/10 09:40:07;;;;;;;;;;;;;;;18.64;63.84;100891.31;4982625;28;1212;-69
2021/03/10 09:42:32;;;;;;;;;;;;;;;18.65;63.69;100884.97;4983911;28;1235;-69
2021/03/10 09:44:59;;;;;;;;;;;;;;;18.63;63.64;100888.75;4921534;28;10811;-69
2021/03/10 09:47:26;;;;;;;;;;;;;;;18.66;63.39;100884.00;4970833;28;1902;-59
2021/03/10 09:49:55;;;;;;;;;;;;;;;18.67;64.04;100895.56;4989844;28;1311;-60
2021/03/10 09:52:32;;;;;;;;;;;;;;;18.68;64.01;100891.88;4979231;28;1779;-62
2021/03/10 09:54:58;;;;;;;;;;;;;;;18.64;63.47;100890.44;4987209;28;1390;-59
2021/03/10 09:57:25;;;;;;;;;;;;;;;18.56;64.14;100880.41;4987828;28;1521;-60
2021/03/10 09:59:51;;;;;;;;;;;;;;;18.52;64.00;100884.28;4991681;28;1438;-57
2021/03/10 10:02:16;;;;;;;;;;;;;;;18.53;64.49;100886.00;4989719;28;1548;-57
2021/03/10 10:04:42;;;;;;;;;;;;;;;18.53;64.25;100888.69;5002781;28;773;-58
2021/03/10 10:07:09;;;;;;;;;;;;;;;18.56;63.99;100875.06;4989935;28;1963;-57
2021/03/10 10:09:34;;;;;;;;;;;;;;;18.59;64.01;100876.63;4994898;28;1411;-56
2021/03/10 10:12:00;;;;;;;;;;;;;;;18.61;64.16;100872.81;4987742;28;1450;-57
2021/03/10 10:14:25;;;;;;;;;;;;;;;18.66;63.87;100883.13;4989384;28;1243;-57
2021/03/10 10:16:50;;;;;;;;;;;;;;;18.65;63.91;100884.97;4988030;28;1393;-56
2021/03/10 10:19:16;;;;;;;;;;;;;;;18.72;63.91;100895.16;4986268;28;1387;-57
2021/03/10 10:21:41;;;;;;;;;;;;;;;18.65;63.82;100865.38;4982036;28;1355;-57
2021/03/10 10:24:07;;;;;;;;;;;;;;;18.69;63.59;100870.34;4993569;28;1394;-58
2021/03/10 10:26:32;;;;;;;;;;;;;;;18.76;63.95;100869.81;4994931;28;1390;-59
2021/03/10 10:28:58;;;;;;;;;;;;;;;18.73;63.54;100875.44;4992419;28;1935;-54
2021/03/10 10:31:23;;;;;;;;;;;;;;;18.66;63.98;100867.06;4995564;28;1433;-60
2021/03/10 10:33:48;;;;;;;;;;;;;;;18.62;63.86;100873.66;4992600;28;1683;-59
2021/03/10 10:36:14;;;;;;;;;;;;;;;18.60;64.16;100875.63;4989894;28;1381;-55
2021/03/10 10:38:39;;;;;;;;;;;;;;;18.66;64.18;100883.13;4987667;28;1263;-56
2021/03/10 10:41:05;;;;;;;;;;;;;;;18.60;64.41;100878.28;4984210;28;1414;-56
2021/03/10 10:43:34;;;;;;;;;;;;;;;18.58;64.57;100875.78;4997313;28;1325;-57
2021/03/10 10:45:59;;;;;;;;;;;;;;;18.63;64.54;100881.56;4989623;28;1483;-57
2021/03/10 10:48:24;;;;;;;;;;;;;;;18.68;64.15;100879.38;4994988;28;1985;-56
2021/03/10 10:50:50;;;;;;;;;;;;;;;18.67;64.18;100866.94;4992316;28;1231;-59
2021/03/10 10:53:15;;;;;;;;;;;;;;;18.72;64.03;100869.25;4987820;28;1388;-59
2021/03/10 10:55:41;;;;;;;;;;;;;;;18.66;63.75;100878.66;4988585;28;1683;-58
2021/03/10 10:58:06;;;;;;;;;;;;;;;18.61;64.08;100859.44;4997159;28;1474;-59
2021/03/10 11:00:31;;;;;;;;;;;;;;;18.60;63.95;100871.13;5000561;28;1310;-56
2021/03/10 11:02:57;;;;;;;;;;;;;;;18.64;63.94;100855.63;4992445;28;1476;-58
2021/03/10 11:05:23;;;;;;;;;;;;;;;18.65;64.11;100860.84;4986061;28;1468;-56
2021/03/10 11:07:48;;;;;;;;;;;;;;;18.60;64.36;100849.72;4986334;28;2376;-56
2021/03/10 11:10:14;;;;;;;;;;;;;;;18.63;64.58;100853.94;4994984;28;1436;-59
2021/03/10 11:12:39;;;;;;;;;;;;;;;18.67;64.62;100842.81;4988009;28;1562;-56
2021/03/10 11:15:05;;;;;;;;;;;;;;;18.68;64.15;100849.03;4988111;28;1511;-56
2021/03/10 11:17:31;;;;;;;;;;;;;;;18.64;63.95;100837.75;4985614;28;1561;-56
2021/03/10 11:19:56;;;;;;;;;;;;;;;18.65;64.20;100839.44;4988031;28;1403;-61
2021/03/10 11:22:21;;;;;;;;;;;;;;;18.63;64.33;100837.88;4983308;28;1368;-58
2021/03/10 11:24:47;;;;;;;;;;;;;;;18.74;64.11;100831.59;4985659;28;1354;-56
2021/03/10 11:27:14;;;;;;;;;;;;;;;18.78;63.95;100827.66;4991224;28;1982;-56
2021/03/10 11:29:40;;;;;;;;;;;;;;;18.71;63.92;100821.16;4996119;28;1387;-58
2021/03/10 11:32:06;;;;;;;;;;;;;;;18.68;64.31;100817.75;4994537;28;1606;-57
2021/03/10 11:34:31;;;;;;;;;;;;;;;18.63;64.52;100814.59;4993261;28;1292;-56
2021/03/10 11:36:56;;;;;;;;;;;;;;;18.68;64.09;100812.41;4996016;28;1379;-56
2021/03/10 11:39:22;;;;;;;;;;;;;;;18.67;64.69;100815.19;4989114;28;1181;-56
2021/03/10 11:41:48;;;;;;;;;;;;;;;18.64;65.13;100810.09;4991720;28;1429;-56
2021/03/10 11:44:13;;;;;;;;;;;;;;;18.57;65.14;100809.78;5000443;28;1532;-56
2021/03/10 11:46:39;;;;;;;;;;;;;;;18.57;65.28;100795.56;4994581;28;1414;-58
2021/03/10 11:49:04;;;;;;;;;;;;;;;18.56;65.14;100800.06;4997845;28;1967;-58
2021/03/10 11:51:31;;;;;;;;;;;;;;;18.68;64.74;100808.84;4983703;28;1262;-56
2021/03/10 11:53:57;;;;;;;;;;;;;;;18.69;64.99;100787.28;4989552;28;1548;-58
2021/03/10 11:56:22;;;;;;;;;;;;;;;18.67;64.66;100783.06;4992723;28;1468;-58
2021/03/10 11:58:47;;;;;;;;;;;;;;;18.68;64.49;100774.03;4990837;28;1402;-58
2021/03/10 12:01:13;;;;;;;;;;;;;;;18.68;64.68;100780.25;4987485;28;1480;-58
2021/03/10 12:03:38;;;;;;;;;;;;;;;18.78;64.09;100771.41;4993555;28;1374;-57
2021/03/10 12:06:04;;;;;;;;;;;;;;;18.75;64.02;100763.66;4988706;28;1412;-59
2021/03/10 12:08:30;;;;;;;;;;;;;;;18.74;64.23;100757.44;4997245;28;1898;-62
2021/03/10 12:10:56;;;;;;;;;;;;;;;18.72;65.30;100769.25;4990185;28;1208;-60
2021/03/10 12:13:21;;;;;;;;;;;;;;;18.67;65.24;100761.63;4989959;28;1416;-58
2021/03/10 12:15:47;;;;;;;;;;;;;;;18.67;65.18;100767.00;4987832;28;1275;-61
2021/03/10 12:18:12;;;;;;;;;;;;;;;18.56;65.50;100757.22;4992228;28;1371;-58
2021/03/10 12:20:37;;;;;;;;;;;;;;;18.57;66.02;100750.03;4989416;28;1188;-61
2021/03/10 12:23:03;;;;;;;;;;;;;;;18.54;64.72;100761.81;4991072;28;1648;-62
2021/03/10 12:25:28;;;;;;;;;;;;;;;18.52;65.54;100758.44;4990863;28;1433;-57
2021/03/10 12:27:56;;;;;;;;;;;;;;;18.50;65.48;100757.72;4991537;28;1985;-58
2021/03/10 12:30:22;;;;;;;;;;;;;;;18.49;65.64;100761.41;4991194;28;1295;-62
2021/03/10 12:32:47;;;;;;;;;;;;;;;18.52;65.85;100762.94;4989984;28;1371;-62
2021/03/10 12:35:12;;;;;;;;;;;;;;;18.50;65.65;100757.72;4987038;28;1203;-62
2021/03/10 12:37:38;;;;;;;;;;;;;;;18.51;65.63;100747.88;4993537;28;1191;-58
2021/03/10 12:40:03;;;;;;;;;;;;;;;18.51;65.36;100762.09;4998371;28;1445;-62
2021/03/10 12:42:29;;;;;;;;;;;;;;;18.53;65.15;100749.44;4991232;28;1522;-61
2021/03/10 12:44:54;;;;;;;;;;;;;;;18.51;65.22;100756.75;4991118;28;1365;-58
2021/03/10 12:47:20;;;;;;;;;;;;;;;18.51;65.45;100759.44;4992532;28;1890;-58